createdAt,value
2022-08-05T00:01:00.962Z,100236.39
2022-08-05T00:03:49.612Z,100236.11
2022-08-05T00:06:32.268Z,100232.52
2022-08-05T00:09:12.724Z,100234.91
2022-08-05T00:11:48.325Z,100236.64
2022-08-05T00:14:21.874Z,100234.69
2022-08-05T00:17:01.885Z,100234.06
2022-08-05T00:20:01.923Z,100232.35
2022-08-05T00:22:27.419Z,100232.76
2022-08-05T00:24:59.519Z,100232.60
2022-08-05T00:27:36.113Z,100234.98
2022-08-05T00:30:11.393Z,100237.70
2022-08-05T00:32:43.785Z,100235.90
2022-08-05T00:35:20.329Z,100232.39
2022-08-05T00:37:54.130Z,100234.69
2022-08-05T00:40:29.392Z,100232.70
2022-08-05T00:43:07.430Z,100230.56
2022-08-05T00:45:43.955Z,100232.39
2022-08-05T00:48:31.287Z,100232.94
2022-08-05T00:51:08.842Z,100229.21
2022-08-05T00:54:02.362Z,100231.30
2022-08-05T00:56:35.343Z,100220.89
2022-08-05T00:59:08.823Z,100222.06
2022-08-05T01:01:48.392Z,100223.26
2022-08-05T01:04:30.079Z,100223.42
2022-08-05T01:07:05.150Z,100219.52
2022-08-05T01:09:37.676Z,100218.02
2022-08-05T01:12:18.826Z,100216.92
2022-08-05T01:14:59.011Z,100212.92
2022-08-05T01:17:44.001Z,100212.53
2022-08-05T01:20:27.583Z,100209.69
2022-08-05T01:23:23.269Z,100210.48
2022-08-05T01:26:08.883Z,100205.11
2022-08-05T01:28:48.035Z,100205.35
2022-08-05T01:31:29.185Z,100203.42
2022-08-05T01:34:05.892Z,100201.51
2022-08-05T01:36:47.000Z,100198.75
2022-08-05T01:39:46.620Z,100197.73
2022-08-05T01:42:17.799Z,100196.10
2022-08-05T01:44:54.104Z,100199.27
2022-08-05T01:47:38.620Z,100201.89
2022-08-05T01:50:16.094Z,100199.14
2022-08-05T01:52:51.695Z,100201.66
2022-08-05T01:55:28.986Z,100199.67
2022-08-05T01:58:29.946Z,100195.77
2022-08-05T02:01:01.240Z,100193.06
2022-08-05T02:03:37.949Z,100194.98
2022-08-05T02:06:37.252Z,100193.09
2022-08-05T02:09:06.502Z,100189.98
2022-08-05T02:11:52.631Z,100183.65
2022-08-05T02:14:32.248Z,100186.14
2022-08-05T02:17:17.020Z,100185.88
2022-08-05T02:20:12.553Z,100185.08
2022-08-05T02:22:48.235Z,100179.55
2022-08-05T02:25:26.144Z,100179.81
2022-08-05T02:28:08.664Z,100176.92
2022-08-05T02:30:54.146Z,100178.64
2022-08-05T02:33:36.242Z,100172.19
2022-08-05T02:36:16.069Z,100172.64
2022-08-05T02:38:53.387Z,100168.52
2022-08-05T02:41:28.604Z,100168.31
2022-08-05T02:44:13.347Z,100171.99
2022-08-05T02:46:58.387Z,100172.66
2022-08-05T02:49:37.667Z,100168.66
2022-08-05T02:52:29.832Z,100164.52
2022-08-05T02:55:05.524Z,100165.69
2022-08-05T02:58:09.912Z,100165.61
2022-08-05T03:00:38.182Z,100164.45
2022-08-05T03:03:12.251Z,100159.02
2022-08-05T03:06:55.042Z,100156.48
2022-08-05T03:08:38.649Z,100155.98
2022-08-05T03:11:57.059Z,100153.40
2022-08-05T03:14:15.180Z,100153.14
2022-08-05T03:16:48.250Z,100150.76
2022-08-05T03:19:34.661Z,100149.23
2022-08-05T03:22:16.467Z,100149.41
2022-08-05T03:24:52.684Z,100146.90
2022-08-05T03:27:39.207Z,100149.52
2022-08-05T03:30:18.461Z,100147.06
2022-08-05T03:32:53.186Z,100145.77
2022-08-05T03:35:25.916Z,100145.51
2022-08-05T03:38:00.133Z,100144.02
2022-08-05T03:40:32.814Z,100147.13
2022-08-05T03:43:58.603Z,100146.12
2022-08-05T03:45:58.799Z,100147.58
2022-08-05T03:48:35.387Z,100149.94
2022-08-05T03:52:36.628Z,100149.44
2022-08-05T03:55:52.519Z,100143.46
2022-08-05T03:57:16.389Z,100143.75
2022-08-05T03:59:55.622Z,100144.29
2022-08-05T04:02:38.438Z,100140.83
2022-08-05T04:05:18.924Z,100144.86
2022-08-05T04:07:57.968Z,100143.33
2022-08-05T04:10:37.928Z,100144.10
2022-08-05T04:13:10.628Z,100143.40
2022-08-05T04:16:02.774Z,100141.99
2022-08-05T04:18:35.502Z,100145.05
2022-08-05T04:21:11.132Z,100149.70
2022-08-05T04:24:00.230Z,100148.89
2022-08-05T04:26:36.186Z,100148.48
2022-08-05T04:29:08.500Z,100147.85
2022-08-05T04:31:41.363Z,100145.00
2022-08-05T04:34:31.320Z,100150.38
2022-08-05T04:37:05.741Z,100144.86
2022-08-05T04:39:37.819Z,100145.11
2022-08-05T04:42:12.073Z,100146.23
2022-08-05T04:44:44.195Z,100145.35
2022-08-05T04:47:20.023Z,100141.44
2022-08-05T04:50:02.968Z,100139.48
2022-08-05T04:52:43.935Z,100140.37
2022-08-05T04:55:17.240Z,100141.13
2022-08-05T04:58:06.597Z,100140.38
2022-08-05T05:00:45.142Z,100143.55
2022-08-05T05:03:22.913Z,100139.81
2022-08-05T05:06:36.668Z,100138.48
2022-08-05T05:08:49.942Z,100139.48
2022-08-05T05:11:22.800Z,100142.92
2022-08-05T05:14:16.242Z,100145.95
2022-08-05T05:16:48.504Z,100144.79
2022-08-05T05:19:26.526Z,100145.29
2022-08-05T05:22:00.016Z,100138.89
2022-08-05T05:24:58.597Z,100138.54
2022-08-05T05:27:44.750Z,100138.45
2022-08-05T05:30:30.410Z,100141.71
2022-08-05T05:33:15.977Z,100145.39
2022-08-05T05:35:50.272Z,100151.23
2022-08-05T05:38:27.500Z,100144.27
2022-08-05T05:41:00.240Z,100146.20
2022-08-05T05:43:58.237Z,100144.30
2022-08-05T05:46:24.473Z,100140.55
2022-08-05T05:48:57.501Z,100145.96
2022-08-05T05:51:30.003Z,100141.73
2022-08-05T05:54:22.438Z,100147.65
2022-08-05T05:57:19.070Z,100147.05
2022-08-05T05:59:51.396Z,100144.09
2022-08-05T06:02:37.476Z,100137.86
2022-08-05T06:05:16.631Z,100139.39
2022-08-05T06:07:57.812Z,100137.13
2022-08-05T06:10:36.717Z,100135.50
2022-08-05T06:13:09.884Z,100133.97
2022-08-05T06:16:28.741Z,100133.55
2022-08-05T06:18:36.510Z,100133.73
2022-08-05T06:21:18.494Z,100136.59
2022-08-05T06:23:51.256Z,100136.17
2022-08-05T06:26:25.065Z,100131.63
2022-08-05T06:28:57.346Z,100131.54
2022-08-05T06:31:30.564Z,100135.67
2022-08-05T06:34:08.905Z,100137.92
2022-08-05T06:36:57.551Z,100136.69
2022-08-05T06:39:31.310Z,100135.52
2022-08-05T06:42:04.971Z,100128.59
2022-08-05T06:44:37.030Z,100134.23
2022-08-05T06:48:11.505Z,100126.10
2022-08-05T06:50:05.393Z,100135.42
2022-08-05T06:52:40.453Z,100125.33
2022-08-05T06:55:13.291Z,100131.78
2022-08-05T06:57:57.282Z,100126.68
2022-08-05T07:00:35.845Z,100114.48
2022-08-05T07:03:13.414Z,100121.16
2022-08-05T07:05:48.861Z,100112.73
2022-08-05T07:08:23.443Z,100114.71
2022-08-05T07:10:57.251Z,100122.53
2022-08-05T07:13:59.405Z,100127.89
2022-08-05T07:17:56.010Z,100129.85
2022-08-05T07:20:31.226Z,100124.34
2022-08-05T07:22:35.133Z,100117.79
2022-08-05T07:25:22.779Z,100116.90
2022-08-05T07:28:04.206Z,100111.48
2022-08-05T07:30:40.835Z,100113.30
2022-08-05T07:33:17.112Z,100114.89
2022-08-05T07:36:02.515Z,100112.52
2022-08-05T07:38:44.204Z,100119.16
2022-08-05T07:42:12.941Z,100125.64
2022-08-05T07:44:19.304Z,100117.80
2022-08-05T07:46:51.859Z,100116.23
2022-08-05T07:49:23.957Z,100118.65
2022-08-05T07:51:56.233Z,100117.90
2022-08-05T07:54:30.207Z,100114.63
2022-08-05T07:57:23.666Z,100114.05
2022-08-05T07:59:57.105Z,100114.77
2022-08-05T08:02:31.413Z,100106.84
2022-08-05T08:05:22.546Z,100106.58
2022-08-05T08:07:59.655Z,100109.75
2022-08-05T08:10:32.852Z,100111.67
2022-08-05T08:13:05.249Z,100101.92
2022-08-05T08:16:35.469Z,100115.16
2022-08-05T08:18:30.060Z,100115.55
2022-08-05T08:21:04.041Z,100110.65
2022-08-05T08:24:03.101Z,100104.00
2022-08-05T08:26:34.634Z,100101.61
2022-08-05T08:30:03.126Z,100101.36
2022-08-05T08:31:58.791Z,100100.88
2022-08-05T08:34:33.306Z,100101.11
2022-08-05T08:37:06.277Z,100109.09
2022-08-05T08:39:49.290Z,100110.91
2022-08-05T08:42:34.053Z,100102.23
2022-08-05T08:45:26.738Z,100110.06
2022-08-05T08:48:10.634Z,100108.49
2022-08-05T08:51:22.572Z,100104.92
2022-08-05T08:53:47.746Z,100099.80
2022-08-05T08:56:22.174Z,100094.27
2022-08-05T08:58:54.362Z,100093.76
2022-08-05T09:01:26.627Z,100093.30
2022-08-05T09:04:00.488Z,100095.48
2022-08-05T09:06:36.395Z,100087.13
2022-08-05T09:09:08.909Z,100090.07
2022-08-05T09:11:52.037Z,100088.70
2022-08-05T09:14:58.275Z,100092.85
2022-08-05T09:17:41.393Z,100093.14
2022-08-05T09:20:21.059Z,100091.80
2022-08-05T09:23:18.677Z,100098.00
2022-08-05T09:26:01.420Z,100105.95
2022-08-05T09:28:37.665Z,100091.25
2022-08-05T09:31:23.318Z,100089.91
2022-08-05T09:34:07.124Z,100084.30
2022-08-05T09:36:54.167Z,100077.67
2022-08-05T09:39:41.550Z,100070.80
2022-08-05T09:42:24.343Z,100072.02
2022-08-05T09:46:05.207Z,100070.77
2022-08-05T09:48:01.801Z,100071.68
2022-08-05T09:50:43.839Z,100080.23
2022-08-05T09:53:26.003Z,100074.32
2022-08-05T09:56:13.108Z,100072.96
2022-08-05T09:58:59.248Z,100060.40
2022-08-05T10:01:33.765Z,100063.40
2022-08-05T10:04:10.591Z,100063.66
2022-08-05T10:06:59.014Z,100059.36
2022-08-05T10:09:45.337Z,100058.08
2022-08-05T10:12:18.925Z,100060.50
2022-08-05T10:15:20.196Z,100058.22
2022-08-05T10:18:16.734Z,100045.41
2022-08-05T10:20:52.709Z,100042.16
2022-08-05T10:23:55.517Z,100038.75
2022-08-05T10:26:24.430Z,100036.48
2022-08-05T10:29:05.253Z,100030.23
2022-08-05T10:32:55.767Z,100018.36
2022-08-05T10:34:32.385Z,100019.86
2022-08-05T10:37:04.663Z,100035.04
2022-08-05T10:40:04.059Z,100027.17
2022-08-05T10:42:38.586Z,100025.49
2022-08-05T10:45:23.319Z,100021.85
2022-08-05T10:48:30.201Z,100025.02
2022-08-05T10:51:22.074Z,100027.88
2022-08-05T10:54:02.060Z,100028.44
2022-08-05T10:56:56.069Z,100021.17
2022-08-05T11:00:02.765Z,100010.09
2022-08-05T11:02:38.044Z,100019.95
2022-08-05T11:05:13.600Z,100015.71
2022-08-05T11:08:21.720Z,100012.91
2022-08-05T11:11:00.981Z,100001.78
2022-08-05T11:13:57.692Z,100003.46
2022-08-05T11:16:33.688Z,100004.27
2022-08-05T11:20:17.105Z,100009.70
2022-08-05T11:22:49.982Z,99999.95
2022-08-05T11:26:04.251Z,100000.17
2022-08-05T11:28:49.868Z,100007.45
2022-08-05T11:31:57.341Z,99995.84
2022-08-05T11:34:50.781Z,100001.48
2022-08-05T11:38:29.585Z,100002.67
2022-08-05T11:41:35.621Z,100004.39
2022-08-05T11:44:04.819Z,99999.41
2022-08-05T11:47:09.970Z,99989.77
2022-08-05T11:49:34.621Z,99988.05
2022-08-05T11:52:08.661Z,99983.79
2022-08-05T11:54:48.505Z,99987.08
2022-08-05T11:58:08.314Z,99989.48
2022-08-05T12:00:31.251Z,99983.52
2022-08-05T12:03:28.570Z,99988.36
2022-08-05T12:06:10.132Z,99985.20
2022-08-05T12:08:50.020Z,99987.66
2022-08-05T12:11:28.373Z,99984.96
2022-08-05T12:14:12.913Z,99972.69
2022-08-05T12:16:48.784Z,99979.91
2022-08-05T12:20:25.800Z,99988.16
2022-08-05T12:22:17.974Z,99965.19
2022-08-05T12:24:56.115Z,99962.19
2022-08-05T12:27:33.064Z,99964.64
2022-08-05T12:30:09.013Z,99966.37
2022-08-05T12:32:51.173Z,99961.11
2022-08-05T12:35:36.984Z,99958.25
2022-08-05T12:38:12.642Z,99952.09
2022-08-05T12:40:48.084Z,99945.44
2022-08-05T12:43:24.327Z,99955.20
2022-08-05T12:46:04.957Z,99939.85
2022-08-05T12:48:42.543Z,99941.02
2022-08-05T12:51:21.706Z,99941.23
2022-08-05T12:54:14.678Z,99935.38
2022-08-05T12:56:52.851Z,99937.36
2022-08-05T12:59:27.446Z,99940.59
2022-08-05T13:02:27.380Z,99939.56
2022-08-05T13:05:07.498Z,99930.84
2022-08-05T13:08:01.002Z,99931.59
2022-08-05T13:10:34.399Z,99928.09
2022-08-05T13:13:09.410Z,99920.69
2022-08-05T13:16:02.073Z,99925.55
2022-08-05T13:18:51.666Z,99926.79
2022-08-05T13:21:24.003Z,99918.31
2022-08-05T13:24:01.080Z,99924.47
2022-08-05T13:26:36.695Z,99917.55
2022-08-05T13:29:08.832Z,99914.65
2022-08-05T13:32:04.047Z,99908.41
2022-08-05T13:34:34.147Z,99906.36
2022-08-05T13:37:10.030Z,99906.98
2022-08-05T13:40:15.958Z,99913.63
2022-08-05T13:42:34.349Z,99901.37
2022-08-05T13:45:08.086Z,99898.59
2022-08-05T13:48:09.782Z,99908.98
2022-08-05T13:50:34.441Z,99909.21
2022-08-05T13:53:08.928Z,99897.23
2022-08-05T13:55:50.255Z,99894.42
2022-08-05T13:58:32.403Z,99883.71
2022-08-05T14:01:05.312Z,99890.14
2022-08-05T14:03:39.350Z,99883.42
2022-08-05T14:06:26.090Z,99879.52
2022-08-05T14:08:59.508Z,99887.45
2022-08-05T14:11:31.751Z,99884.05
2022-08-05T14:14:25.449Z,99879.55
2022-08-05T14:16:59.013Z,99876.02
2022-08-05T14:19:32.895Z,99881.15
2022-08-05T14:22:25.364Z,99875.81
2022-08-05T14:25:02.856Z,99882.27
2022-08-05T14:27:38.621Z,99874.53
2022-08-05T14:30:21.344Z,99875.27
2022-08-05T14:32:53.488Z,99877.70
2022-08-05T14:35:50.477Z,99868.39
2022-08-05T14:38:32.242Z,99875.61
2022-08-05T14:41:08.295Z,99871.02
2022-08-05T14:43:59.058Z,99865.47
2022-08-05T14:46:34.973Z,99860.04
2022-08-05T14:49:08.418Z,99862.34
2022-08-05T14:51:43.209Z,99859.30
2022-08-05T14:54:28.066Z,99859.17
2022-08-05T14:57:05.146Z,99861.71
2022-08-05T14:59:41.880Z,99860.69
2022-08-05T15:02:15.936Z,99859.09
2022-08-05T15:04:49.907Z,99860.16
2022-08-05T15:08:08.913Z,99857.19
2022-08-05T15:10:14.411Z,99853.13
2022-08-05T15:13:00.596Z,99858.55
2022-08-05T15:15:54.960Z,99866.27
2022-08-05T15:18:28.086Z,99867.38
2022-08-05T15:21:07.443Z,99854.02
2022-08-05T15:23:40.239Z,99850.02
2022-08-05T15:26:12.470Z,99852.96
2022-08-05T15:28:44.641Z,99859.79
2022-08-05T15:31:24.192Z,99853.40
2022-08-05T15:34:31.497Z,99842.71
2022-08-05T15:37:03.557Z,99840.17
2022-08-05T15:41:00.571Z,99839.64
2022-08-05T15:42:54.051Z,99831.41
2022-08-05T15:45:38.216Z,99836.84
2022-08-05T15:48:14.335Z,99829.23
2022-08-05T15:50:49.144Z,99831.15
2022-08-05T15:53:23.091Z,99818.38
2022-08-05T15:56:05.582Z,99815.10
2022-08-05T15:58:39.625Z,99814.29
2022-08-05T16:01:17.427Z,99816.38
2022-08-05T16:03:51.076Z,99820.80
2022-08-05T16:06:24.261Z,99820.88
2022-08-05T16:08:56.278Z,99830.70
2022-08-05T16:11:39.958Z,99821.60
2022-08-05T16:14:17.201Z,99819.84
2022-08-05T16:16:50.814Z,99822.16
2022-08-05T16:20:03.754Z,99819.61
2022-08-05T16:22:15.649Z,99824.39
2022-08-05T16:24:51.837Z,99821.84
2022-08-05T16:27:46.753Z,99810.45
2022-08-05T16:30:26.496Z,99809.48
2022-08-05T16:33:01.569Z,99805.05
2022-08-05T16:35:42.210Z,99807.86
2022-08-05T16:38:25.610Z,99803.07
2022-08-05T16:42:12.301Z,99805.58
2022-08-05T16:43:56.095Z,99802.15
2022-08-05T16:46:28.678Z,99799.95
2022-08-05T16:49:00.702Z,99800.42
2022-08-05T16:51:42.834Z,99800.55
2022-08-05T16:54:28.937Z,99805.23
2022-08-05T16:57:04.552Z,99802.66
2022-08-05T17:00:01.750Z,99803.56
2022-08-05T17:02:38.226Z,99805.86
2022-08-05T17:05:11.999Z,99802.52
2022-08-05T17:07:53.090Z,99800.83
2022-08-05T17:10:30.440Z,99797.38
2022-08-05T17:13:02.834Z,99801.66
2022-08-05T17:15:48.949Z,99801.61
2022-08-05T17:18:23.246Z,99801.96
2022-08-05T17:20:55.781Z,99801.55
2022-08-05T17:24:03.383Z,99796.30
2022-08-05T17:26:20.467Z,99802.45
2022-08-05T17:28:55.740Z,99804.10
2022-08-05T17:31:41.267Z,99803.50
2022-08-05T17:34:20.179Z,99805.28
2022-08-05T17:37:04.472Z,99808.00
2022-08-05T17:39:37.217Z,99814.20
2022-08-05T17:42:17.919Z,99813.95
2022-08-05T17:44:52.848Z,99816.30
2022-08-05T17:47:25.219Z,99815.53
2022-08-05T17:50:03.870Z,99818.77
2022-08-05T17:52:52.600Z,99816.36
2022-08-05T17:55:37.638Z,99814.20
2022-08-05T17:58:14.371Z,99815.81
2022-08-05T18:00:50.719Z,99811.94
2022-08-05T18:03:56.259Z,99811.70
2022-08-05T18:06:17.230Z,99816.90
2022-08-05T18:08:52.485Z,99815.32
2022-08-05T18:11:32.515Z,99818.38
2022-08-05T18:14:07.489Z,99819.58
2022-08-05T18:16:51.853Z,99817.02
2022-08-05T18:19:25.986Z,99814.59
2022-08-05T18:22:07.862Z,99818.45
2022-08-05T18:24:43.579Z,99816.59
2022-08-05T18:27:18.776Z,99823.54
2022-08-05T18:29:54.590Z,99821.88
2022-08-05T18:32:28.199Z,99819.77
2022-08-05T18:35:02.013Z,99821.16
2022-08-05T18:37:40.384Z,99821.75
2022-08-05T18:40:34.545Z,99817.28
2022-08-05T18:43:09.191Z,99817.91
2022-08-05T18:45:49.001Z,99814.84
2022-08-05T18:48:31.252Z,99814.64
2022-08-05T18:52:04.446Z,99811.81
2022-08-05T18:54:14.763Z,99814.88
2022-08-05T18:56:51.028Z,99816.75
2022-08-05T18:59:50.672Z,99822.59
2022-08-05T19:02:27.116Z,99824.16
2022-08-05T19:06:06.312Z,99822.48
2022-08-05T19:07:57.012Z,99825.76
2022-08-05T19:10:31.593Z,99823.56
2022-08-05T19:13:03.893Z,99826.23
2022-08-05T19:15:59.407Z,99828.95
2022-08-05T19:18:29.939Z,99829.21
2022-08-05T19:21:03.437Z,99827.98
2022-08-05T19:24:07.125Z,99826.50
2022-08-05T19:26:30.906Z,99827.81
2022-08-05T19:29:03.081Z,99828.88
2022-08-05T19:31:50.640Z,99831.59
2022-08-05T19:34:24.073Z,99831.37
2022-08-05T19:36:56.066Z,99828.98
2022-08-05T19:39:30.109Z,99827.88
2022-08-05T19:42:07.679Z,99828.95
2022-08-05T19:44:45.212Z,99827.52
2022-08-05T19:47:19.121Z,99826.61
2022-08-05T19:49:51.489Z,99826.25
2022-08-05T19:52:31.377Z,99827.86
2022-08-05T19:55:06.896Z,99827.89
2022-08-05T19:57:49.217Z,99826.61
2022-08-05T20:00:33.370Z,99828.00
2022-08-05T20:03:09.079Z,99834.08
2022-08-05T20:05:50.167Z,99834.26
2022-08-05T20:08:24.548Z,99834.54
2022-08-05T20:10:58.032Z,99832.16
2022-08-05T20:13:58.262Z,99834.23
2022-08-05T20:16:24.877Z,99834.56
2022-08-05T20:18:57.079Z,99826.77
2022-08-05T20:21:29.224Z,99822.31
2022-08-05T20:24:03.056Z,99821.66
2022-08-05T20:26:35.224Z,99821.00
2022-08-05T20:29:07.389Z,99818.83
2022-08-05T20:31:59.755Z,99817.14
2022-08-05T20:34:32.102Z,99821.13
2022-08-05T20:37:04.317Z,99823.26
2022-08-05T20:39:51.680Z,99820.93
2022-08-05T20:42:24.147Z,99824.21
2022-08-05T20:45:00.695Z,99820.59
2022-08-05T20:47:35.233Z,99825.64
2022-08-05T20:50:13.510Z,99825.89
2022-08-05T20:52:47.720Z,99832.67
2022-08-05T20:56:07.965Z,99831.28
2022-08-05T20:58:15.314Z,99828.48
2022-08-05T21:00:52.045Z,99826.79
2022-08-05T21:03:26.809Z,99823.41
2022-08-05T21:05:59.056Z,99828.38
2022-08-05T21:08:41.950Z,99824.17
2022-08-05T21:12:09.558Z,99826.67
2022-08-05T21:14:08.619Z,99829.52
2022-08-05T21:16:44.353Z,99836.20
